createdAt,value
2023-03-15T00:02:16.438Z,37.00
2023-03-15T00:04:44.321Z,37.80
2023-03-15T00:07:12.377Z,36.60
2023-03-15T00:09:41.485Z,36.33
2023-03-15T00:12:09.724Z,36.40
2023-03-15T00:14:38.105Z,37.33
2023-03-15T00:17:05.960Z,36.30
2023-03-15T00:19:33.756Z,36.67
2023-03-15T00:22:01.586Z,35.17
2023-03-15T00:24:29.532Z,35.80
2023-03-15T00:26:58.960Z,36.53
2023-03-15T00:29:26.858Z,35.83
2023-03-15T00:31:54.719Z,35.70
2023-03-15T00:34:25.770Z,35.33
2023-03-15T00:36:54.585Z,35.27
2023-03-15T00:39:25.609Z,35.47
2023-03-15T00:41:56.624Z,34.67
2023-03-15T00:44:26.272Z,34.53
2023-03-15T00:46:54.110Z,33.70
2023-03-15T00:49:21.954Z,33.93
2023-03-15T00:51:50.263Z,34.23
2023-03-15T00:54:18.054Z,33.90
2023-03-15T00:56:45.853Z,34.47
2023-03-15T00:59:13.668Z,34.33
2023-03-15T01:01:44.738Z,34.50
2023-03-15T01:04:12.777Z,34.00
2023-03-15T01:06:42.207Z,34.27
2023-03-15T01:09:10.651Z,33.77
2023-03-15T01:11:38.634Z,34.30
2023-03-15T01:14:08.727Z,34.03
2023-03-15T01:16:36.783Z,34.10
2023-03-15T01:19:06.229Z,35.20
2023-03-15T01:21:34.095Z,34.00
2023-03-15T01:24:01.997Z,33.93
2023-03-15T01:26:29.797Z,33.97
2023-03-15T01:28:57.578Z,36.37
2023-03-15T01:31:27.632Z,34.13
2023-03-15T01:33:56.260Z,33.97
2023-03-15T01:36:25.751Z,33.87
2023-03-15T01:38:54.855Z,38.00
2023-03-15T01:41:24.670Z,34.37
2023-03-15T01:43:52.829Z,33.90
2023-03-15T01:46:29.102Z,33.80
2023-03-15T01:49:01.768Z,34.63
2023-03-15T01:51:35.290Z,34.40
2023-03-15T01:54:08.676Z,33.97
2023-03-15T01:56:39.919Z,33.50
2023-03-15T01:59:12.459Z,33.33
2023-03-15T02:01:45.494Z,33.20
2023-03-15T02:04:18.024Z,34.03
2023-03-15T02:06:48.584Z,38.13
2023-03-15T02:09:19.301Z,33.40
2023-03-15T02:11:47.282Z,34.40
2023-03-15T02:14:16.186Z,32.83
2023-03-15T02:16:44.543Z,33.83
2023-03-15T02:19:26.582Z,33.83
2023-03-15T02:22:03.911Z,33.20
2023-03-15T02:24:43.540Z,33.53
2023-03-15T02:27:11.794Z,33.63
2023-03-15T02:29:42.035Z,33.47
2023-03-15T02:32:10.083Z,34.73
2023-03-15T02:34:37.969Z,33.93
2023-03-15T02:37:05.911Z,33.30
2023-03-15T02:39:33.751Z,33.10
2023-03-15T02:42:01.982Z,33.90
2023-03-15T02:44:32.792Z,33.93
2023-03-15T02:47:05.304Z,34.37
2023-03-15T02:49:38.638Z,35.47
2023-03-15T02:52:07.222Z,35.17
2023-03-15T02:54:35.119Z,33.77
2023-03-15T02:57:03.857Z,34.10
2023-03-15T02:59:31.934Z,33.50
2023-03-15T03:01:59.909Z,33.47
2023-03-15T03:04:29.507Z,34.17
2023-03-15T03:06:57.339Z,34.10
2023-03-15T03:09:25.962Z,33.03
2023-03-15T03:11:53.778Z,33.70
2023-03-15T03:14:23.708Z,34.13
2023-03-15T03:16:51.888Z,37.00
2023-03-15T03:19:20.057Z,32.90
2023-03-15T03:21:49.227Z,32.73
2023-03-15T03:24:17.018Z,33.57
2023-03-15T03:26:46.062Z,34.13
2023-03-15T03:29:16.781Z,33.40
2023-03-15T03:31:45.615Z,33.57
2023-03-15T03:34:15.471Z,33.17
2023-03-15T03:36:43.789Z,33.10
2023-03-15T03:39:13.276Z,33.77
2023-03-15T03:41:41.064Z,33.93
2023-03-15T03:44:08.880Z,34.50
2023-03-15T03:46:37.290Z,33.63
2023-03-15T03:49:05.193Z,33.70
2023-03-15T03:51:34.049Z,34.40
2023-03-15T03:54:01.904Z,33.87
2023-03-15T03:56:31.293Z,34.73
2023-03-15T03:58:59.135Z,34.47
2023-03-15T04:01:26.951Z,33.67
2023-03-15T04:03:54.970Z,33.40
2023-03-15T04:06:23.499Z,33.50
2023-03-15T04:08:51.336Z,39.77
2023-03-15T04:11:19.143Z,33.80
2023-03-15T04:13:49.204Z,33.87
2023-03-15T04:16:17.017Z,33.17
2023-03-15T04:18:44.883Z,37.57
2023-03-15T04:21:12.913Z,32.80
2023-03-15T04:23:41.008Z,33.67
2023-03-15T04:26:08.886Z,33.73
2023-03-15T04:28:37.970Z,36.47
2023-03-15T04:31:10.436Z,33.60
2023-03-15T04:33:38.431Z,33.37
2023-03-15T04:36:06.806Z,33.57
2023-03-15T04:38:35.488Z,35.07
2023-03-15T04:41:10.695Z,32.90
2023-03-15T04:43:38.513Z,34.73
2023-03-15T04:46:07.973Z,34.03
2023-03-15T04:48:36.039Z,34.13
2023-03-15T04:51:03.868Z,33.33
2023-03-15T04:53:31.690Z,34.07
2023-03-15T04:55:59.498Z,34.90
2023-03-15T04:58:27.364Z,33.80
2023-03-15T05:00:55.273Z,33.53
2023-03-15T05:03:24.567Z,36.40
2023-03-15T05:05:52.447Z,33.83
2023-03-15T05:08:20.772Z,33.77
2023-03-15T05:10:48.583Z,34.80
2023-03-15T05:13:18.853Z,34.77
2023-03-15T05:15:46.631Z,33.57
2023-03-15T05:18:14.446Z,34.37
2023-03-15T05:20:43.891Z,33.20
2023-03-15T05:23:11.737Z,35.37
2023-03-15T05:25:39.534Z,37.07
2023-03-15T05:28:07.577Z,35.40
2023-03-15T05:30:35.460Z,33.27
2023-03-15T05:33:04.919Z,36.13
2023-03-15T05:35:32.770Z,34.70
2023-03-15T05:38:03.292Z,33.83
2023-03-15T05:40:31.207Z,33.53
2023-03-15T05:42:58.996Z,33.50
2023-03-15T05:45:26.983Z,33.93
2023-03-15T05:47:54.810Z,33.40
2023-03-15T05:50:23.153Z,35.40
2023-03-15T05:52:52.128Z,34.30
2023-03-15T05:55:22.065Z,35.20
2023-03-15T05:57:50.079Z,33.90
2023-03-15T06:00:19.206Z,35.10
2023-03-15T06:02:48.284Z,34.27
2023-03-15T06:05:16.231Z,33.50
2023-03-15T06:07:44.615Z,32.40
2023-03-15T06:10:13.999Z,33.77
2023-03-15T06:12:44.637Z,34.00
2023-03-15T06:15:13.158Z,33.17
2023-03-15T06:17:41.079Z,33.67
2023-03-15T06:20:09.989Z,33.00
2023-03-15T06:22:38.224Z,32.67
2023-03-15T06:25:07.051Z,34.13
2023-03-15T06:27:35.052Z,36.40
2023-03-15T06:30:05.217Z,35.20
2023-03-15T06:32:33.130Z,33.00
2023-03-15T06:35:01.072Z,34.90
2023-03-15T06:37:34.988Z,33.93
2023-03-15T06:40:05.835Z,37.17
2023-03-15T06:42:33.636Z,33.07
2023-03-15T06:45:01.989Z,34.70
2023-03-15T06:47:31.211Z,33.30
2023-03-15T06:49:58.998Z,38.00
2023-03-15T06:52:26.851Z,39.47
2023-03-15T06:54:54.699Z,34.97
2023-03-15T06:57:22.550Z,32.77
2023-03-15T06:59:50.700Z,34.40
2023-03-15T07:02:19.933Z,32.73
2023-03-15T07:04:49.535Z,33.87
2023-03-15T07:07:17.445Z,34.57
2023-03-15T07:09:45.305Z,32.43
2023-03-15T07:12:13.414Z,34.80
2023-03-15T07:14:41.306Z,35.43
2023-03-15T07:17:09.242Z,36.90
2023-03-15T07:19:41.401Z,33.07
2023-03-15T07:22:15.887Z,33.63
2023-03-15T07:24:43.701Z,33.37
2023-03-15T07:27:15.687Z,33.13
2023-03-15T07:29:44.421Z,33.77
2023-03-15T07:32:12.291Z,33.30
2023-03-15T07:34:40.245Z,33.90
2023-03-15T07:37:08.298Z,34.83
2023-03-15T07:39:37.485Z,35.20
2023-03-15T07:42:07.137Z,33.60
2023-03-15T07:44:35.070Z,35.40
2023-03-15T07:47:02.888Z,36.63
2023-03-15T07:49:31.733Z,32.47
2023-03-15T07:51:59.633Z,35.73
2023-03-15T07:54:29.406Z,34.80
2023-03-15T07:56:58.561Z,35.40
2023-03-15T07:59:26.373Z,33.17
2023-03-15T08:01:54.517Z,34.57
2023-03-15T08:04:22.406Z,34.27
2023-03-15T08:06:50.363Z,34.03
2023-03-15T08:09:18.188Z,36.33
2023-03-15T08:11:46.044Z,34.13
2023-03-15T08:14:15.257Z,34.20
2023-03-15T08:16:43.104Z,34.30
2023-03-15T08:19:11.002Z,36.80
2023-03-15T08:21:38.821Z,35.93
2023-03-15T08:24:07.227Z,35.33
2023-03-15T08:26:34.985Z,35.43
2023-03-15T08:29:02.814Z,37.40
2023-03-15T08:31:32.309Z,38.50
2023-03-15T08:34:00.150Z,38.90
2023-03-15T08:36:28.067Z,36.90
2023-03-15T08:38:55.901Z,39.30
2023-03-15T08:41:23.713Z,38.33
2023-03-15T08:43:51.496Z,37.95
2023-03-15T08:46:21.812Z,38.50
2023-03-15T08:48:51.151Z,40.90
2023-03-15T08:51:19.636Z,39.45
2023-03-15T08:53:47.442Z,39.60
2023-03-15T08:56:15.263Z,39.22
2023-03-15T08:58:43.370Z,39.30
2023-03-15T09:01:12.699Z,38.40
2023-03-15T09:03:42.359Z,39.70
2023-03-15T09:06:11.783Z,40.87
2023-03-15T09:08:39.649Z,40.47
2023-03-15T09:11:07.445Z,37.70
2023-03-15T09:13:35.286Z,38.63
2023-03-15T09:16:03.732Z,38.50
2023-03-15T09:18:31.990Z,39.63
2023-03-15T09:20:59.804Z,40.00
2023-03-15T09:23:29.036Z,40.70
2023-03-15T09:25:56.891Z,40.75
2023-03-15T09:28:26.510Z,40.15
2023-03-15T09:30:54.638Z,40.50
2023-03-15T09:33:22.582Z,40.53
2023-03-15T09:35:52.055Z,40.60
2023-03-15T09:38:22.002Z,40.03
2023-03-15T09:40:51.551Z,40.30
2023-03-15T09:43:48.578Z,42.13
2023-03-15T09:46:26.392Z,40.70
2023-03-15T09:48:57.550Z,40.90
2023-03-15T09:51:35.371Z,40.58
2023-03-15T09:54:08.882Z,41.60
2023-03-15T09:56:45.412Z,41.10
2023-03-15T09:59:16.284Z,40.90
2023-03-15T10:01:45.342Z,40.77
2023-03-15T10:04:21.011Z,40.67
2023-03-15T10:06:54.468Z,40.80
2023-03-15T10:09:24.676Z,41.00
2023-03-15T10:12:04.198Z,41.00
2023-03-15T10:14:44.625Z,40.95
2023-03-15T10:17:15.633Z,41.30
2023-03-15T10:19:49.809Z,41.03
2023-03-15T10:22:25.720Z,40.80
2023-03-15T10:24:57.952Z,41.30
2023-03-15T10:27:32.972Z,41.15
2023-03-15T10:30:02.247Z,40.80
2023-03-15T10:32:38.469Z,41.50
2023-03-15T10:35:15.232Z,41.30
2023-03-15T10:37:43.589Z,41.70
2023-03-15T10:40:15.940Z,42.40
2023-03-15T10:42:46.758Z,41.20
2023-03-15T10:45:21.719Z,41.78
2023-03-15T10:47:59.738Z,41.72
2023-03-15T10:50:30.893Z,41.53
2023-03-15T10:53:00.338Z,41.90
2023-03-15T10:55:33.822Z,41.58
2023-03-15T10:58:21.324Z,41.83
2023-03-15T11:00:53.358Z,41.90
2023-03-15T11:03:23.843Z,42.05
2023-03-15T11:05:53.634Z,43.40
2023-03-15T11:08:23.954Z,42.40
2023-03-15T11:10:58.134Z,41.00
2023-03-15T11:13:28.563Z,41.90
2023-03-15T11:16:03.763Z,41.50
2023-03-15T11:18:36.184Z,41.50
2023-03-15T11:21:09.355Z,41.50
2023-03-15T11:23:39.321Z,41.80
2023-03-15T11:26:12.289Z,41.50
2023-03-15T11:28:44.005Z,41.30
2023-03-15T11:31:11.837Z,41.75
2023-03-15T11:33:46.500Z,41.45
2023-03-15T11:36:19.412Z,42.00
2023-03-15T11:38:47.950Z,43.60
2023-03-15T11:41:25.136Z,42.38
2023-03-15T11:44:03.458Z,41.67
2023-03-15T11:46:35.631Z,42.00
2023-03-15T11:49:11.756Z,42.60
2023-03-15T11:51:40.466Z,41.80
2023-03-15T11:54:15.355Z,42.60
2023-03-15T11:56:57.418Z,42.10
2023-03-15T11:59:32.475Z,42.20
2023-03-15T12:02:02.431Z,42.80
2023-03-15T12:04:51.274Z,41.00
2023-03-15T12:07:36.871Z,40.80
2023-03-15T12:10:30.728Z,41.50
2023-03-15T12:13:00.015Z,42.00
2023-03-15T12:15:47.884Z,41.40
2023-03-15T12:18:22.180Z,41.50
2023-03-15T12:21:18.378Z,41.55
2023-03-15T12:23:50.363Z,41.40
2023-03-15T12:26:33.514Z,41.30
2023-03-15T12:29:09.765Z,43.70
2023-03-15T12:32:00.546Z,41.95
2023-03-15T12:34:37.051Z,41.50
2023-03-15T12:37:07.952Z,42.13
2023-03-15T12:39:48.329Z,42.22
2023-03-15T12:43:10.387Z,42.10
2023-03-15T12:45:47.473Z,40.85
2023-03-15T12:48:27.305Z,41.60
2023-03-15T12:51:14.595Z,41.47
2023-03-15T12:53:48.292Z,41.85
2023-03-15T12:56:35.773Z,41.40
2023-03-15T12:59:28.133Z,43.53
2023-03-15T13:01:57.499Z,41.50
2023-03-15T13:04:27.972Z,41.80
2023-03-15T13:07:07.563Z,41.60
2023-03-15T13:10:00.916Z,42.13
2023-03-15T13:12:33.879Z,41.30
2023-03-15T13:15:07.378Z,41.72
2023-03-15T13:17:42.406Z,41.80
2023-03-15T13:20:21.528Z,41.33
2023-03-15T13:22:56.493Z,41.55
2023-03-15T13:25:31.243Z,41.60
2023-03-15T13:28:03.894Z,41.45
2023-03-15T13:30:35.400Z,41.83
2023-03-15T13:33:10.952Z,42.22
2023-03-15T13:35:44.994Z,41.40
2023-03-15T13:38:25.713Z,42.50
2023-03-15T13:40:53.570Z,42.15
2023-03-15T13:43:21.607Z,43.40
2023-03-15T13:45:49.400Z,42.47
2023-03-15T13:48:18.900Z,41.80
2023-03-15T13:50:51.424Z,41.93
2023-03-15T13:53:35.663Z,44.20
2023-03-15T13:56:16.446Z,41.50
2023-03-15T13:58:44.461Z,44.13
2023-03-15T14:01:15.393Z,42.53
2023-03-15T14:03:47.870Z,41.90
2023-03-15T14:06:24.682Z,41.10
2023-03-15T14:08:55.642Z,41.85
2023-03-15T14:11:38.192Z,41.30
2023-03-15T14:14:24.054Z,42.47
2023-03-15T14:17:04.176Z,42.10
2023-03-15T14:19:34.659Z,42.00
2023-03-15T14:22:05.857Z,41.95
2023-03-15T14:24:37.568Z,41.97
2023-03-15T14:27:08.730Z,41.80
2023-03-15T14:29:38.987Z,43.60
2023-03-15T14:32:09.516Z,42.67
2023-03-15T14:34:44.566Z,42.03
2023-03-15T14:37:31.051Z,41.58
2023-03-15T14:40:09.869Z,42.42
2023-03-15T14:42:37.682Z,42.20
2023-03-15T14:45:06.628Z,41.95
2023-03-15T14:47:55.945Z,42.00
2023-03-15T14:50:26.874Z,42.10
2023-03-15T14:52:58.152Z,42.33
2023-03-15T14:55:30.392Z,42.33
2023-03-15T14:57:58.235Z,41.90
2023-03-15T15:00:26.853Z,40.95
2023-03-15T15:02:56.578Z,42.00
2023-03-15T15:05:27.246Z,41.53
2023-03-15T15:08:03.346Z,41.70
2023-03-15T15:10:32.414Z,41.90
2023-03-15T15:13:06.444Z,42.47
2023-03-15T15:15:53.614Z,41.80
2023-03-15T15:18:23.932Z,41.80
2023-03-15T15:20:55.173Z,41.65
2023-03-15T15:23:27.086Z,42.88
2023-03-15T15:25:58.081Z,42.75
2023-03-15T15:28:36.614Z,41.95
2023-03-15T15:31:06.777Z,41.45
2023-03-15T15:33:34.794Z,41.20
2023-03-15T15:36:03.227Z,41.33
2023-03-15T15:38:38.260Z,41.70
2023-03-15T15:41:07.573Z,41.15
2023-03-15T15:43:35.430Z,41.70
2023-03-15T15:46:03.348Z,41.58
2023-03-15T15:48:31.374Z,42.28
2023-03-15T15:50:59.292Z,41.10
2023-03-15T15:53:31.873Z,41.90
2023-03-15T15:56:01.074Z,43.20
2023-03-15T15:58:28.973Z,43.70
2023-03-15T16:00:56.813Z,41.17
2023-03-15T16:03:24.850Z,42.13
2023-03-15T16:05:52.860Z,42.13
2023-03-15T16:08:24.546Z,42.58
2023-03-15T16:10:52.923Z,41.70
2023-03-15T16:13:35.086Z,41.70
2023-03-15T16:16:03.011Z,41.15
2023-03-15T16:18:32.093Z,41.00
2023-03-15T16:21:00.738Z,42.30
2023-03-15T16:23:28.607Z,41.70
2023-03-15T16:25:57.398Z,41.60
2023-03-15T16:28:26.963Z,41.40
2023-03-15T16:30:54.846Z,41.40
2023-03-15T16:33:23.740Z,41.75
2023-03-15T16:35:53.392Z,40.65
2023-03-15T16:38:24.888Z,41.10
2023-03-15T16:40:53.881Z,42.50
2023-03-15T16:43:21.768Z,41.80
2023-03-15T16:45:51.069Z,41.58
2023-03-15T16:48:18.903Z,41.00
2023-03-15T16:50:48.138Z,41.40
2023-03-15T16:53:16.025Z,41.88
2023-03-15T16:55:43.841Z,41.20
2023-03-15T16:58:17.567Z,41.30
2023-03-15T17:00:47.782Z,40.83
2023-03-15T17:03:18.073Z,42.30
2023-03-15T17:05:47.901Z,40.90
2023-03-15T17:08:20.465Z,43.15
2023-03-15T17:10:49.166Z,41.65
2023-03-15T17:13:21.515Z,41.70
2023-03-15T17:15:49.378Z,41.42
2023-03-15T17:18:19.774Z,41.40
2023-03-15T17:20:50.077Z,41.50
2023-03-15T17:23:20.737Z,42.50
2023-03-15T17:25:49.328Z,41.10
2023-03-15T17:28:17.596Z,40.90
2023-03-15T17:30:46.004Z,41.00
2023-03-15T17:33:13.889Z,41.20
2023-03-15T17:35:45.396Z,42.20
2023-03-15T17:38:18.291Z,41.40
2023-03-15T17:40:46.445Z,40.38
2023-03-15T17:43:17.174Z,39.70
2023-03-15T17:45:45.025Z,42.65
2023-03-15T17:48:13.245Z,40.97
2023-03-15T17:50:44.765Z,40.90
2023-03-15T17:53:16.802Z,40.10
2023-03-15T17:55:46.220Z,40.53
2023-03-15T17:58:18.946Z,40.30
2023-03-15T18:00:48.308Z,40.00
2023-03-15T18:03:17.547Z,40.50
2023-03-15T18:05:47.802Z,40.45
2023-03-15T18:08:18.131Z,39.90
2023-03-15T18:10:47.030Z,41.03
2023-03-15T18:13:17.509Z,40.35
2023-03-15T18:15:45.403Z,40.50
2023-03-15T18:18:13.470Z,39.83
2023-03-15T18:20:42.073Z,40.90
2023-03-15T18:23:14.004Z,41.28
2023-03-15T18:25:42.088Z,40.88
2023-03-15T18:28:10.300Z,40.10
2023-03-15T18:30:38.157Z,40.60
2023-03-15T18:33:06.148Z,39.40
2023-03-15T18:35:36.516Z,39.80
2023-03-15T18:38:04.989Z,39.95
2023-03-15T18:40:35.316Z,39.80
2023-03-15T18:43:05.290Z,38.85
2023-03-15T18:45:35.528Z,39.95
2023-03-15T18:48:04.354Z,40.90
2023-03-15T18:50:33.520Z,39.95
2023-03-15T18:53:01.465Z,40.60
2023-03-15T18:55:29.401Z,39.57
2023-03-15T18:57:58.697Z,39.60
2023-03-15T19:00:29.452Z,39.22
2023-03-15T19:02:59.197Z,39.80
2023-03-15T19:05:27.959Z,39.00
2023-03-15T19:07:55.808Z,39.75
2023-03-15T19:10:24.979Z,39.75
2023-03-15T19:12:53.178Z,39.00
2023-03-15T19:15:23.788Z,39.10
2023-03-15T19:17:54.337Z,40.67
2023-03-15T19:20:22.661Z,39.35
2023-03-15T19:22:51.067Z,40.03
2023-03-15T19:25:19.493Z,38.50
2023-03-15T19:27:47.483Z,37.90
2023-03-15T19:30:20.716Z,39.50
2023-03-15T19:32:51.046Z,38.90
2023-03-15T19:35:20.044Z,38.80
2023-03-15T19:37:48.679Z,39.00
2023-03-15T19:40:17.141Z,39.70
2023-03-15T19:42:45.193Z,38.30
2023-03-15T19:45:13.316Z,38.85
2023-03-15T19:47:41.519Z,38.80
2023-03-15T19:50:13.028Z,38.55
2023-03-15T19:52:45.852Z,39.30
2023-03-15T19:55:14.371Z,39.10
2023-03-15T19:57:42.263Z,38.53
2023-03-15T20:00:12.583Z,40.05
2023-03-15T20:02:40.947Z,38.78
2023-03-15T20:05:11.967Z,38.60
2023-03-15T20:07:40.223Z,38.58
2023-03-15T20:10:11.751Z,38.60
2023-03-15T20:12:42.024Z,39.20
2023-03-15T20:15:11.453Z,38.50
2023-03-15T20:17:40.737Z,39.10
2023-03-15T20:20:13.123Z,38.10
2023-03-15T20:22:42.685Z,38.60
2023-03-15T20:25:11.690Z,38.97
2023-03-15T20:27:39.896Z,38.70
2023-03-15T20:30:09.804Z,39.25
2023-03-15T20:32:37.733Z,39.05
2023-03-15T20:35:09.059Z,39.55
2023-03-15T20:37:40.118Z,40.10
2023-03-15T20:40:10.630Z,39.20
2023-03-15T20:42:38.724Z,38.40
2023-03-15T20:45:07.826Z,38.60
2023-03-15T20:47:35.889Z,38.22
2023-03-15T20:50:03.782Z,39.45
2023-03-15T20:52:37.961Z,39.40
2023-03-15T20:55:08.147Z,38.50
2023-03-15T20:57:36.313Z,38.60
2023-03-15T21:00:11.990Z,38.72
2023-03-15T21:02:40.205Z,40.25
2023-03-15T21:05:09.272Z,39.35
2023-03-15T21:07:37.426Z,39.30
2023-03-15T21:10:07.446Z,38.40
2023-03-15T21:12:35.343Z,38.60
2023-03-15T21:15:03.266Z,39.03
2023-03-15T21:17:34.490Z,39.20
2023-03-15T21:20:02.379Z,39.90
2023-03-15T21:22:30.449Z,38.08
2023-03-15T21:24:58.343Z,38.40
2023-03-15T21:27:27.583Z,38.60
2023-03-15T21:29:55.523Z,38.20
2023-03-15T21:32:23.541Z,39.40
2023-03-15T21:34:51.651Z,38.03
2023-03-15T21:37:19.504Z,38.40
2023-03-15T21:39:47.347Z,38.70
2023-03-15T21:42:15.143Z,39.00
2023-03-15T21:44:44.353Z,38.40
2023-03-15T21:47:13.962Z,38.73
2023-03-15T21:49:44.544Z,39.33
2023-03-15T21:52:12.527Z,39.00
2023-03-15T21:54:40.449Z,38.28
2023-03-15T21:57:08.382Z,38.40
2023-03-15T21:59:36.214Z,39.97
2023-03-15T22:02:05.535Z,38.50
2023-03-15T22:04:34.120Z,38.90
2023-03-15T22:07:02.142Z,38.50
2023-03-15T22:09:29.996Z,40.95
2023-03-15T22:11:57.847Z,38.95
2023-03-15T22:14:25.704Z,39.60
2023-03-15T22:16:53.638Z,38.40
2023-03-15T22:19:23.401Z,39.35
2023-03-15T22:21:51.234Z,39.60
2023-03-15T22:24:19.057Z,39.15
2023-03-15T22:26:46.853Z,38.78
2023-03-15T22:29:14.700Z,39.30
2023-03-15T22:31:42.554Z,38.42
2023-03-15T22:34:10.396Z,38.78
2023-03-15T22:36:39.586Z,38.90
2023-03-15T22:39:07.526Z,40.42
2023-03-15T22:41:35.742Z,39.70
2023-03-15T22:44:03.584Z,39.47
2023-03-15T22:46:34.878Z,39.50
2023-03-15T22:49:03.208Z,39.15
2023-03-15T22:51:31.180Z,39.65
2023-03-15T22:54:00.379Z,39.60
2023-03-15T22:56:28.184Z,39.20
2023-03-15T22:58:56.357Z,39.40
2023-03-15T23:01:24.567Z,39.10
2023-03-15T23:03:52.524Z,39.10
2023-03-15T23:06:20.658Z,39.67
2023-03-15T23:08:48.809Z,39.28
2023-03-15T23:11:18.011Z,40.05
2023-03-15T23:13:48.276Z,38.75
2023-03-15T23:16:16.182Z,38.40
2023-03-15T23:18:44.409Z,39.22
2023-03-15T23:21:13.961Z,38.70
2023-03-15T23:23:42.989Z,39.08
2023-03-15T23:26:12.664Z,39.40
2023-03-15T23:28:42.026Z,40.13
2023-03-15T23:31:10.063Z,39.10
2023-03-15T23:33:37.962Z,39.10
2023-03-15T23:36:07.229Z,39.20
2023-03-15T23:38:35.354Z,39.10
2023-03-15T23:41:04.875Z,39.08
2023-03-15T23:43:33.676Z,40.17
2023-03-15T23:46:05.128Z,38.87
2023-03-15T23:48:35.153Z,38.90
2023-03-15T23:51:03.944Z,39.10
2023-03-15T23:53:31.895Z,39.00
2023-03-15T23:55:59.833Z,38.67
2023-03-15T23:58:28.148Z,38.70
